PWSweather.com
Personal Weather Stations
Station Observations
79674
AfterstegDE 79674

AfterstegDE 79674

Lat: 47.84344, Lon: 7.92844

Elevation: 809

Station Type: Davis Vantage 2 Aktive

Latest ConditionsUpdated 1:17:10 PM GMT+01:01 Thursday, Jul 24, 2014
Currently Today's Max Today's Min Today's Average
Temperature 70.7°F21.5°C 72.9°F22.7°C 59.7°F15.4°C 65.1°F18.4°C
Dew Point 59.2°F15.1°C 59.2°F15.1°C 50.5°F10.3°C 53.3°F11.8°C
Winds 6.0 mph WNW9.7 kmh WNW 6.0 mph SSE9.7 kmh SSE - 2.3 mph 3.7 kmh
Wind Gusts 6.0 mph9.7 kmh 8.9 mph14.3 kmh - -
Humidity 67% 76% 48% 66%
Pressure 29.84 in1010.5 mb 29.86 in1011.2 mb 29.82 in1009.8 mb -
Hour Temp Dew Point Humidity Winds Wind Gusts Pressure Precip Precip Rate Daily Precip Total
01:17 PM 70.7°F21.5°C 59.2°F15.1°C 67% 6.0 mph WNW9.7 kmh WNW 6.0 mph9.7 kmh 29.84 in1010.5 mb 0.00 in0.0 mm 0.00 in/hr0.0 mm/hr 0.00 in0.0 mm
01:12 PM 70.2°F21.2°C 57.9°F14.4°C 65% 4.9 mph WNW7.9 kmh WNW 8.9 mph14.3 kmh 29.84 in1010.5 mb 0.00 in0.0 mm 0.00 in/hr0.0 mm/hr 0.00 in0.0 mm
01:07 PM 70.2°F21.2°C 58.3°F14.6°C 66% 4.0 mph W6.4 kmh W 8.1 mph13.0 kmh 29.84 in1010.5 mb 0.00 in0.0 mm 0.00 in/hr0.0 mm/hr 0.00 in0.0 mm
01:02 PM 69.8°F21.0°C 57.6°F14.2°C 65% 4.0 mph NW6.4 kmh NW 2.0 mph3.2 kmh 29.85 in1010.8 mb 0.00 in0.0 mm 0.00 in/hr0.0 mm/hr 0.00 in0.0 mm
12:57 PM 69.3°F20.7°C 58.3°F14.6°C 68% 4.0 mph NW6.4 kmh NW 2.9 mph4.7 kmh 29.84 in1010.5 mb 0.00 in0.0 mm 0.00 in/hr0.0 mm/hr 0.00 in0.0 mm
12:52 PM 69.6°F20.9°C 58.6°F14.8°C 68% 2.9 mph W4.7 kmh W 4.9 mph7.9 kmh 29.85 in1010.8 mb 0.00 in0.0 mm 0.00 in/hr0.0 mm/hr 0.00 in0.0 mm
12:47 PM 70.3°F21.3°C 55.8°F13.2°C 60% 2.0 mph SW3.2 kmh SW 2.9 mph4.7 kmh 29.85 in1010.8 mb 0.00 in0.0 mm 0.00 in/hr0.0 mm/hr 0.00 in0.0 mm
12:42 PM 70.2°F21.2°C 57.4°F14.1°C 64% 2.9 mph WSW4.7 kmh WSW 2.9 mph4.7 kmh 29.85 in1010.8 mb 0.00 in0.0 mm 0.00 in/hr0.0 mm/hr 0.00 in0.0 mm
12:37 PM 70.9°F21.6°C 56.3°F13.5°C 60% 4.0 mph SSE6.4 kmh SSE 4.0 mph6.4 kmh 29.86 in1011.2 mb 0.00 in0.0 mm 0.00 in/hr0.0 mm/hr 0.00 in0.0 mm
12:32 PM 71.8°F22.1°C 56.7°F13.7°C 59% 2.9 mph W4.7 kmh W 4.0 mph6.4 kmh 29.85 in1010.8 mb 0.00 in0.0 mm 0.00 in/hr0.0 mm/hr 0.00 in0.0 mm
12:27 PM 70.9°F21.6°C 54.3°F12.4°C 56% 2.9 mph W4.7 kmh W 6.0 mph9.7 kmh 29.85 in1010.8 mb 0.00 in0.0 mm 0.00 in/hr0.0 mm/hr 0.00 in0.0 mm
12:22 PM 70.2°F21.2°C 53.2°F11.8°C 55% 2.0 mph NW3.2 kmh NW -- 29.85 in1010.8 mb 0.00 in0.0 mm 0.00 in/hr0.0 mm/hr 0.00 in0.0 mm
12:17 PM 69.8°F21.0°C 55.2°F12.9°C 60% 2.9 mph NW4.7 kmh NW 2.9 mph4.7 kmh 29.86 in1011.2 mb 0.00 in0.0 mm 0.00 in/hr0.0 mm/hr 0.00 in0.0 mm
12:12 PM 69.8°F21.0°C 55.8°F13.2°C 61% 2.9 mph NW4.7 kmh NW 2.0 mph3.2 kmh 29.85 in1010.8 mb 0.00 in0.0 mm 0.00 in/hr0.0 mm/hr 0.00 in0.0 mm
12:07 PM 69.8°F21.0°C 53.4°F11.9°C 56% 0.9 mph NNW1.4 kmh NNW 0.9 mph1.4 kmh 29.85 in1010.8 mb 0.00 in0.0 mm 0.00 in/hr0.0 mm/hr 0.00 in0.0 mm
12:02 PM 70.2°F21.2°C 55.2°F12.9°C 59% 0.9 mph NW1.4 kmh NW -- 29.86 in1011.2 mb 0.00 in0.0 mm 0.00 in/hr0.0 mm/hr 0.00 in0.0 mm
11:57 AM 70.3°F21.3°C 55.4°F13.0°C 59% 0.9 mph NNW1.4 kmh NNW 2.0 mph3.2 kmh 29.86 in1011.2 mb 0.00 in0.0 mm 0.00 in/hr0.0 mm/hr 0.00 in0.0 mm
11:52 AM 70.3°F21.3°C 53.4°F11.9°C 55% 0.9 mph NW1.4 kmh NW 0.9 mph1.4 kmh 29.86 in1011.2 mb 0.00 in0.0 mm 0.00 in/hr0.0 mm/hr 0.00 in0.0 mm
11:47 AM 70.5°F21.4°C 52.5°F11.4°C 53% 2.9 mph NW4.7 kmh NW 0.9 mph1.4 kmh 29.86 in1011.2 mb 0.00 in0.0 mm 0.00 in/hr0.0 mm/hr 0.00 in0.0 mm
11:42 AM 70.7°F21.5°C 52.7°F11.5°C 53% 4.0 mph S6.4 kmh S 2.0 mph3.2 kmh 29.86 in1011.2 mb 0.00 in0.0 mm 0.00 in/hr0.0 mm/hr 0.00 in0.0 mm
11:37 AM 71.1°F21.7°C 51.4°F10.8°C 50% 2.9 mph NW4.7 kmh NW 0.9 mph1.4 kmh 29.86 in1011.2 mb 0.00 in0.0 mm 0.00 in/hr0.0 mm/hr 0.00 in0.0 mm
11:32 AM 71.1°F21.7°C 53.1°F11.7°C 53% 2.0 mph WNW3.2 kmh WNW 4.9 mph7.9 kmh 29.86 in1011.2 mb 0.00 in0.0 mm 0.00 in/hr0.0 mm/hr 0.00 in0.0 mm
11:27 AM 71.2°F21.8°C 50.5°F10.3°C 48% 2.0 mph NW3.2 kmh NW -- 29.85 in1010.8 mb 0.00 in0.0 mm 0.00 in/hr0.0 mm/hr 0.00 in0.0 mm
11:22 AM 72.0°F22.2°C 53.4°F11.9°C 52% 2.0 mph N3.2 kmh N 0.9 mph1.4 kmh 29.85 in1010.8 mb 0.00 in0.0 mm 0.00 in/hr0.0 mm/hr 0.00 in0.0 mm
11:17 AM 71.8°F22.1°C 52.2°F11.2°C 50% 2.9 mph NW4.7 kmh NW 0.9 mph1.4 kmh 29.85 in1010.8 mb 0.00 in0.0 mm 0.00 in/hr0.0 mm/hr 0.00 in0.0 mm
11:12 AM 72.0°F22.2°C 51.8°F11.0°C 49% 4.9 mph SSW7.9 kmh SSW 2.9 mph4.7 kmh 29.85 in1010.8 mb 0.00 in0.0 mm 0.00 in/hr0.0 mm/hr 0.00 in0.0 mm
11:07 AM 72.9°F22.7°C 53.1°F11.7°C 50% 4.9 mph SW7.9 kmh SW 6.0 mph9.7 kmh 29.85 in1010.8 mb 0.00 in0.0 mm 0.00 in/hr0.0 mm/hr 0.00 in0.0 mm
11:02 AM 72.7°F22.6°C 54.5°F12.5°C 53% 2.9 mph S4.7 kmh S 8.1 mph13.0 kmh 29.85 in1010.8 mb 0.00 in0.0 mm 0.00 in/hr0.0 mm/hr 0.00 in0.0 mm
10:57 AM 72.5°F22.5°C 51.6°F10.9°C 48% 4.0 mph SSW6.4 kmh SSW -- 29.85 in1010.8 mb 0.00 in0.0 mm 0.00 in/hr0.0 mm/hr 0.00 in0.0 mm
10:52 AM 72.9°F22.7°C 53.6°F12.0°C 51% 4.9 mph SSE7.9 kmh SSE 6.0 mph9.7 kmh 29.85 in1010.8 mb 0.00 in0.0 mm 0.00 in/hr0.0 mm/hr 0.00 in0.0 mm
10:47 AM 72.9°F22.7°C 52.5°F11.4°C 49% 4.9 mph S7.9 kmh S 6.0 mph9.7 kmh 29.85 in1010.8 mb 0.00 in0.0 mm 0.00 in/hr0.0 mm/hr 0.00 in0.0 mm
10:42 AM 72.7°F22.6°C 52.9°F11.6°C 50% 4.9 mph SSW7.9 kmh SSW 6.0 mph9.7 kmh 29.85 in1010.8 mb 0.00 in0.0 mm 0.00 in/hr0.0 mm/hr 0.00 in0.0 mm
10:37 AM 72.7°F22.6°C 51.8°F11.0°C 48% 2.9 mph S4.7 kmh S 8.9 mph14.3 kmh 29.85 in1010.8 mb 0.00 in0.0 mm 0.00 in/hr0.0 mm/hr 0.00 in0.0 mm
10:32 AM 72.7°F22.6°C 52.3°F11.3°C 49% 2.9 mph S4.7 kmh S 2.9 mph4.7 kmh 29.85 in1010.8 mb 0.00 in0.0 mm 0.00 in/hr0.0 mm/hr 0.00 in0.0 mm
10:27 AM 72.0°F22.2°C 52.3°F11.3°C 50% 4.0 mph WSW6.4 kmh WSW 2.9 mph4.7 kmh 29.85 in1010.8 mb 0.00 in0.0 mm 0.00 in/hr0.0 mm/hr 0.00 in0.0 mm
10:22 AM 72.3°F22.4°C 52.2°F11.2°C 49% 2.9 mph SSW4.7 kmh SSW 4.0 mph6.4 kmh 29.85 in1010.8 mb 0.00 in0.0 mm 0.00 in/hr0.0 mm/hr 0.00 in0.0 mm
10:17 AM 72.0°F22.2°C 53.4°F11.9°C 52% 4.0 mph SSW6.4 kmh SSW 6.0 mph9.7 kmh 29.85 in1010.8 mb 0.00 in0.0 mm 0.00 in/hr0.0 mm/hr 0.00 in0.0 mm
10:12 AM 71.6°F22.0°C 52.5°F11.4°C 51% 4.0 mph WSW6.4 kmh WSW 4.0 mph6.4 kmh 29.85 in1010.8 mb 0.00 in0.0 mm 0.00 in/hr0.0 mm/hr 0.00 in0.0 mm
10:07 AM 71.8°F22.1°C 53.8°F12.1°C 53% 4.9 mph SE7.9 kmh SE 4.0 mph6.4 kmh 29.85 in1010.8 mb 0.00 in0.0 mm 0.00 in/hr0.0 mm/hr 0.00 in0.0 mm
10:02 AM 71.4°F21.9°C 52.9°F11.6°C 52% 4.0 mph SSW6.4 kmh SSW 2.9 mph4.7 kmh 29.85 in1010.8 mb 0.00 in0.0 mm 0.00 in/hr0.0 mm/hr 0.00 in0.0 mm
09:57 AM 72.0°F22.2°C 54.0°F12.2°C 53% 2.9 mph SSE4.7 kmh SSE 4.9 mph7.9 kmh 29.85 in1010.8 mb 0.00 in0.0 mm 0.00 in/hr0.0 mm/hr 0.00 in0.0 mm
09:52 AM 72.0°F22.2°C 54.0°F12.2°C 53% 2.9 mph S4.7 kmh S 0.9 mph1.4 kmh 29.85 in1010.8 mb 0.00 in0.0 mm 0.00 in/hr0.0 mm/hr 0.00 in0.0 mm
09:47 AM 71.4°F21.9°C 53.4°F11.9°C 53% 4.9 mph S7.9 kmh S -- 29.85 in1010.8 mb 0.00 in0.0 mm 0.00 in/hr0.0 mm/hr 0.00 in0.0 mm
09:42 AM 71.2°F21.8°C 53.2°F11.8°C 53% 6.0 mph SSE9.7 kmh SSE 4.9 mph7.9 kmh 29.85 in1010.8 mb 0.00 in0.0 mm 0.00 in/hr0.0 mm/hr 0.00 in0.0 mm
09:37 AM 70.9°F21.6°C 54.0°F12.2°C 55% 4.9 mph SW7.9 kmh SW 4.0 mph6.4 kmh 29.85 in1010.8 mb 0.00 in0.0 mm 0.00 in/hr0.0 mm/hr 0.00 in0.0 mm
09:32 AM 70.7°F21.5°C 55.2°F12.9°C 58% 4.0 mph SE6.4 kmh SE 2.0 mph3.2 kmh 29.85 in1010.8 mb 0.00 in0.0 mm 0.00 in/hr0.0 mm/hr 0.00 in0.0 mm
09:27 AM 70.3°F21.3°C 54.0°F12.2°C 56% 4.0 mph S6.4 kmh S 4.0 mph6.4 kmh 29.85 in1010.8 mb 0.00 in0.0 mm 0.00 in/hr0.0 mm/hr 0.00 in0.0 mm
09:22 AM 69.8°F21.0°C 52.9°F11.6°C 55% 4.9 mph SSE7.9 kmh SSE 4.0 mph6.4 kmh 29.85 in1010.8 mb 0.00 in0.0 mm 0.00 in/hr0.0 mm/hr 0.00 in0.0 mm
09:17 AM 70.0°F21.1°C 53.6°F12.0°C 56% 4.9 mph S7.9 kmh S 6.9 mph11.1 kmh 29.85 in1010.8 mb 0.00 in0.0 mm 0.00 in/hr0.0 mm/hr 0.00 in0.0 mm
09:12 AM 70.2°F21.2°C 53.8°F12.1°C 56% 4.0 mph SW6.4 kmh SW 6.0 mph9.7 kmh 29.85 in1010.8 mb 0.00 in0.0 mm 0.00 in/hr0.0 mm/hr 0.00 in0.0 mm
09:07 AM 69.4°F20.8°C 53.1°F11.7°C 56% 4.9 mph NE7.9 kmh NE 0.9 mph1.4 kmh 29.85 in1010.8 mb 0.00 in0.0 mm 0.00 in/hr0.0 mm/hr 0.00 in0.0 mm
09:02 AM 69.3°F20.7°C 52.3°F11.3°C 55% 6.0 mph SSW9.7 kmh SSW 4.0 mph6.4 kmh 29.85 in1010.8 mb 0.00 in0.0 mm 0.00 in/hr0.0 mm/hr 0.00 in0.0 mm
08:57 AM 69.3°F20.7°C 52.0°F11.1°C 54% 4.9 mph S7.9 kmh S 4.9 mph7.9 kmh 29.85 in1010.8 mb 0.00 in0.0 mm 0.00 in/hr0.0 mm/hr 0.00 in0.0 mm
08:52 AM 69.3°F20.7°C 52.9°F11.6°C 56% 4.0 mph S6.4 kmh S 2.0 mph3.2 kmh 29.85 in1010.8 mb 0.00 in0.0 mm 0.00 in/hr0.0 mm/hr 0.00 in0.0 mm
08:47 AM 69.1°F20.6°C 54.1°F12.3°C 59% 2.9 mph S4.7 kmh S 2.9 mph4.7 kmh 29.85 in1010.8 mb 0.00 in0.0 mm 0.00 in/hr0.0 mm/hr 0.00 in0.0 mm
08:42 AM 68.9°F20.5°C 53.6°F12.0°C 58% 2.9 mph SE4.7 kmh SE 4.0 mph6.4 kmh 29.84 in1010.5 mb 0.00 in0.0 mm 0.00 in/hr0.0 mm/hr 0.00 in0.0 mm
08:37 AM 68.5°F20.3°C 53.2°F11.8°C 58% 2.9 mph S4.7 kmh S 0.9 mph1.4 kmh 29.84 in1010.5 mb 0.00 in0.0 mm 0.00 in/hr0.0 mm/hr 0.00 in0.0 mm
08:32 AM 68.2°F20.1°C 53.8°F12.1°C 60% 2.0 mph S3.2 kmh S 2.0 mph3.2 kmh 29.84 in1010.5 mb 0.00 in0.0 mm 0.00 in/hr0.0 mm/hr 0.00 in0.0 mm
08:27 AM 68.2°F20.1°C 53.8°F12.1°C 60% 0.9 mph S1.4 kmh S 4.0 mph6.4 kmh 29.85 in1010.8 mb 0.00 in0.0 mm 0.00 in/hr0.0 mm/hr 0.00 in0.0 mm
08:22 AM 67.6°F19.8°C 55.0°F12.8°C 64% 0.9 mph S1.4 kmh S 6.0 mph9.7 kmh 29.84 in1010.5 mb 0.00 in0.0 mm 0.00 in/hr0.0 mm/hr 0.00 in0.0 mm
08:17 AM 67.3°F19.6°C 56.3°F13.5°C 68% 0.9 mph E1.4 kmh E 0.9 mph1.4 kmh 29.84 in1010.5 mb 0.00 in0.0 mm 0.00 in/hr0.0 mm/hr 0.00 in0.0 mm
08:12 AM 66.7°F19.3°C 55.0°F12.8°C 66% 0.9 mph NW1.4 kmh NW 2.9 mph4.7 kmh 29.84 in1010.5 mb 0.00 in0.0 mm 0.00 in/hr0.0 mm/hr 0.00 in0.0 mm
08:07 AM 66.0°F18.9°C 55.2°F12.9°C 68% 0.9 mph ENE1.4 kmh ENE -- 29.84 in1010.5 mb 0.00 in0.0 mm 0.00 in/hr0.0 mm/hr 0.00 in0.0 mm
08:02 AM 65.5°F18.6°C 55.4°F13.0°C 70% 0.9 mph ENE1.4 kmh ENE 0.9 mph1.4 kmh 29.84 in1010.5 mb 0.00 in0.0 mm 0.00 in/hr0.0 mm/hr 0.00 in0.0 mm
07:57 AM 65.5°F18.6°C 54.7°F12.6°C 68% 0.9 mph NNE1.4 kmh NNE 0.9 mph1.4 kmh 29.84 in1010.5 mb 0.00 in0.0 mm 0.00 in/hr0.0 mm/hr 0.00 in0.0 mm
07:52 AM 65.3°F18.5°C 55.2°F12.9°C 70% 0.9 mph NE1.4 kmh NE -- 29.84 in1010.5 mb 0.00 in0.0 mm 0.00 in/hr0.0 mm/hr 0.00 in0.0 mm
07:47 AM 64.8°F18.2°C 55.2°F12.9°C 71% Calm Calm 2.0 mph3.2 kmh 29.84 in1010.5 mb 0.00 in0.0 mm 0.00 in/hr0.0 mm/hr 0.00 in0.0 mm
07:42 AM 64.2°F17.9°C 54.3°F12.4°C 70% Calm Calm 2.0 mph3.2 kmh 29.84 in1010.5 mb 0.00 in0.0 mm 0.00 in/hr0.0 mm/hr 0.00 in0.0 mm
07:37 AM 63.5°F17.5°C 54.3°F12.4°C 72% 0.9 mph N1.4 kmh N -- 29.84 in1010.5 mb 0.00 in0.0 mm 0.00 in/hr0.0 mm/hr 0.00 in0.0 mm
07:32 AM 63.1°F17.3°C 53.6°F12.0°C 71% 2.0 mph NE3.2 kmh NE -- 29.84 in1010.5 mb 0.00 in0.0 mm 0.00 in/hr0.0 mm/hr 0.00 in0.0 mm
07:27 AM 62.8°F17.1°C 53.6°F12.0°C 72% 2.0 mph NE3.2 kmh NE 2.9 mph4.7 kmh 29.84 in1010.5 mb 0.00 in0.0 mm 0.00 in/hr0.0 mm/hr 0.00 in0.0 mm
07:22 AM 62.6°F17.0°C 53.4°F11.9°C 72% 2.0 mph NE3.2 kmh NE -- 29.84 in1010.5 mb 0.00 in0.0 mm 0.00 in/hr0.0 mm/hr 0.00 in0.0 mm
07:17 AM 62.1°F16.7°C 53.2°F11.8°C 73% 2.9 mph NE4.7 kmh NE 0.9 mph1.4 kmh 29.84 in1010.5 mb 0.00 in0.0 mm 0.00 in/hr0.0 mm/hr 0.00 in0.0 mm
07:12 AM 61.5°F16.4°C 53.2°F11.8°C 74% 2.9 mph NE4.7 kmh NE 2.0 mph3.2 kmh 29.84 in1010.5 mb 0.00 in0.0 mm 0.00 in/hr0.0 mm/hr 0.00 in0.0 mm
07:07 AM 61.3°F16.3°C 53.4°F11.9°C 75% 2.0 mph NE3.2 kmh NE 2.9 mph4.7 kmh 29.84 in1010.5 mb 0.00 in0.0 mm 0.00 in/hr0.0 mm/hr 0.00 in0.0 mm
07:02 AM 61.3°F16.3°C 53.4°F11.9°C 75% 0.9 mph NE1.4 kmh NE 4.0 mph6.4 kmh 29.84 in1010.5 mb 0.00 in0.0 mm 0.00 in/hr0.0 mm/hr 0.00 in0.0 mm
06:57 AM 61.2°F16.2°C 53.2°F11.8°C 75% 2.0 mph NE3.2 kmh NE 0.9 mph1.4 kmh 29.84 in1010.5 mb 0.00 in0.0 mm 0.00 in/hr0.0 mm/hr 0.00 in0.0 mm
06:52 AM 61.2°F16.2°C 52.9°F11.6°C 74% 2.0 mph NE3.2 kmh NE 0.9 mph1.4 kmh 29.84 in1010.5 mb 0.00 in0.0 mm 0.00 in/hr0.0 mm/hr 0.00 in0.0 mm
06:47 AM 61.0°F16.1°C 52.7°F11.5°C 74% 2.0 mph NE3.2 kmh NE 2.0 mph3.2 kmh 29.83 in1010.2 mb 0.00 in0.0 mm 0.00 in/hr0.0 mm/hr 0.00 in0.0 mm
06:42 AM 61.0°F16.1°C 52.7°F11.5°C 74% 0.9 mph NE1.4 kmh NE -- 29.84 in1010.5 mb 0.00 in0.0 mm 0.00 in/hr0.0 mm/hr 0.00 in0.0 mm
06:37 AM 60.8°F16.0°C 52.5°F11.4°C 74% 0.9 mph NE1.4 kmh NE -- 29.84 in1010.5 mb 0.00 in0.0 mm 0.00 in/hr0.0 mm/hr 0.00 in0.0 mm
06:32 AM 60.6°F15.9°C 52.7°F11.5°C 75% 0.9 mph NE1.4 kmh NE -- 29.84 in1010.5 mb 0.00 in0.0 mm 0.00 in/hr0.0 mm/hr 0.00 in0.0 mm
06:27 AM 60.4°F15.8°C 52.5°F11.4°C 75% 0.9 mph NE1.4 kmh NE 2.0 mph3.2 kmh 29.83 in1010.2 mb 0.00 in0.0 mm 0.00 in/hr0.0 mm/hr 0.00 in0.0 mm
06:22 AM 60.4°F15.8°C 52.5°F11.4°C 75% 0.9 mph ENE1.4 kmh ENE -- 29.83 in1010.2 mb 0.00 in0.0 mm 0.00 in/hr0.0 mm/hr 0.00 in0.0 mm
06:17 AM 60.3°F15.7°C 52.3°F11.3°C 75% 0.9 mph NE1.4 kmh NE 0.9 mph1.4 kmh 29.83 in1010.2 mb 0.00 in0.0 mm 0.00 in/hr0.0 mm/hr 0.00 in0.0 mm
06:12 AM 60.1°F15.6°C 52.2°F11.2°C 75% 0.9 mph NE1.4 kmh NE 0.9 mph1.4 kmh 29.83 in1010.2 mb 0.00 in0.0 mm 0.00 in/hr0.0 mm/hr 0.00 in0.0 mm
06:07 AM 60.1°F15.6°C 52.5°F11.4°C 76% 0.9 mph NE1.4 kmh NE -- 29.83 in1010.2 mb 0.00 in0.0 mm 0.00 in/hr0.0 mm/hr 0.00 in0.0 mm
06:02 AM 60.1°F15.6°C 52.2°F11.2°C 75% 0.9 mph NE1.4 kmh NE 0.9 mph1.4 kmh 29.83 in1010.2 mb 0.00 in0.0 mm 0.00 in/hr0.0 mm/hr 0.00 in0.0 mm
05:57 AM 59.9°F15.5°C 52.0°F11.1°C 75% 0.9 mph NE1.4 kmh NE 0.9 mph1.4 kmh 29.83 in1010.2 mb 0.00 in0.0 mm 0.00 in/hr0.0 mm/hr 0.00 in0.0 mm
05:52 AM 59.7°F15.4°C 52.2°F11.2°C 76% 0.9 mph NE1.4 kmh NE 0.9 mph1.4 kmh 29.83 in1010.2 mb 0.00 in0.0 mm 0.00 in/hr0.0 mm/hr 0.00 in0.0 mm
05:47 AM 59.7°F15.4°C 51.8°F11.0°C 75% 0.9 mph NNE1.4 kmh NNE 0.9 mph1.4 kmh 29.83 in1010.2 mb 0.00 in0.0 mm 0.00 in/hr0.0 mm/hr 0.00 in0.0 mm
05:42 AM 59.9°F15.5°C 52.0°F11.1°C 75% 0.9 mph N1.4 kmh N -- 29.83 in1010.2 mb 0.00 in0.0 mm 0.00 in/hr0.0 mm/hr 0.00 in0.0 mm
05:37 AM 60.1°F15.6°C 51.8°F11.0°C 74% 0.9 mph NE1.4 kmh NE 0.9 mph1.4 kmh 29.83 in1010.2 mb 0.00 in0.0 mm 0.00 in/hr0.0 mm/hr 0.00 in0.0 mm
05:32 AM 60.1°F15.6°C 51.8°F11.0°C 74% 0.9 mph NNE1.4 kmh NNE 0.9 mph1.4 kmh 29.83 in1010.2 mb 0.00 in0.0 mm 0.00 in/hr0.0 mm/hr 0.00 in0.0 mm
05:27 AM 60.3°F15.7°C 52.0°F11.1°C 74% 0.9 mph NE1.4 kmh NE -- 29.83 in1010.2 mb 0.00 in0.0 mm 0.00 in/hr0.0 mm/hr 0.00 in0.0 mm
05:22 AM 60.3°F15.7°C 52.0°F11.1°C 74% 0.9 mph NE1.4 kmh NE 2.0 mph3.2 kmh 29.83 in1010.2 mb 0.00 in0.0 mm 0.00 in/hr0.0 mm/hr 0.00 in0.0 mm
05:17 AM 60.3°F15.7°C 51.6°F10.9°C 73% 0.9 mph NNW1.4 kmh NNW 0.9 mph1.4 kmh 29.83 in1010.2 mb 0.00 in0.0 mm 0.00 in/hr0.0 mm/hr 0.00 in0.0 mm
05:12 AM 59.7°F15.4°C 51.8°F11.0°C 75% 2.0 mph NE3.2 kmh NE 2.0 mph3.2 kmh 29.83 in1010.2 mb 0.00 in0.0 mm 0.00 in/hr0.0 mm/hr 0.00 in0.0 mm
05:07 AM 59.9°F15.5°C 52.0°F11.1°C 75% 2.0 mph N3.2 kmh N 2.0 mph3.2 kmh 29.83 in1010.2 mb 0.00 in0.0 mm 0.00 in/hr0.0 mm/hr 0.00 in0.0 mm
05:02 AM 59.7°F15.4°C 51.8°F11.0°C 75% 0.9 mph NNE1.4 kmh NNE 0.9 mph1.4 kmh 29.83 in1010.2 mb 0.00 in0.0 mm 0.00 in/hr0.0 mm/hr 0.00 in0.0 mm
04:57 AM 59.9°F15.5°C 52.3°F11.3°C 76% 0.9 mph ENE1.4 kmh ENE -- 29.83 in1010.2 mb 0.00 in0.0 mm 0.00 in/hr0.0 mm/hr 0.00 in0.0 mm
04:52 AM 59.9°F15.5°C 52.0°F11.1°C 75% 0.9 mph NE1.4 kmh NE 0.9 mph1.4 kmh 29.83 in1010.2 mb 0.00 in0.0 mm 0.00 in/hr0.0 mm/hr 0.00 in0.0 mm
04:47 AM 60.1°F15.6°C 52.5°F11.4°C 76% 0.9 mph NE1.4 kmh NE 2.0 mph3.2 kmh 29.83 in1010.2 mb 0.00 in0.0 mm 0.00 in/hr0.0 mm/hr 0.00 in0.0 mm
04:42 AM 60.1°F15.6°C 52.5°F11.4°C 76% 0.9 mph NE1.4 kmh NE -- 29.83 in1010.2 mb 0.00 in0.0 mm 0.00 in/hr0.0 mm/hr 0.00 in0.0 mm
04:37 AM 60.3°F15.7°C 52.7°F11.5°C 76% 0.9 mph N1.4 kmh N -- 29.83 in1010.2 mb 0.00 in0.0 mm 0.00 in/hr0.0 mm/hr 0.00 in0.0 mm
04:32 AM 60.4°F15.8°C 52.5°F11.4°C 75% 2.0 mph ENE3.2 kmh ENE 0.9 mph1.4 kmh 29.83 in1010.2 mb 0.00 in0.0 mm 0.00 in/hr0.0 mm/hr 0.00 in0.0 mm
04:27 AM 60.4°F15.8°C 52.5°F11.4°C 75% 0.9 mph NE1.4 kmh NE 2.0 mph3.2 kmh 29.83 in1010.2 mb 0.00 in0.0 mm 0.00 in/hr0.0 mm/hr 0.00 in0.0 mm
04:22 AM 61.0°F16.1°C 52.7°F11.5°C 74% 0.9 mph ENE1.4 kmh ENE 0.9 mph1.4 kmh 29.83 in1010.2 mb 0.00 in0.0 mm 0.00 in/hr0.0 mm/hr 0.00 in0.0 mm
04:17 AM 61.2°F16.2°C 52.5°F11.4°C 73% 0.9 mph N1.4 kmh N 2.0 mph3.2 kmh 29.83 in1010.2 mb 0.00 in0.0 mm 0.00 in/hr0.0 mm/hr 0.00 in0.0 mm
04:12 AM 61.5°F16.4°C 52.3°F11.3°C 72% 2.0 mph NE3.2 kmh NE -- 29.83 in1010.2 mb 0.00 in0.0 mm 0.00 in/hr0.0 mm/hr 0.00 in0.0 mm
04:07 AM 61.9°F16.6°C 52.3°F11.3°C 71% 2.0 mph NE3.2 kmh NE 4.0 mph6.4 kmh 29.83 in1010.2 mb 0.00 in0.0 mm 0.00 in/hr0.0 mm/hr 0.00 in0.0 mm
04:02 AM 62.1°F16.7°C 52.5°F11.4°C 71% 2.0 mph NE3.2 kmh NE 2.9 mph4.7 kmh 29.82 in1009.8 mb 0.00 in0.0 mm 0.00 in/hr0.0 mm/hr 0.00 in0.0 mm
03:57 AM 62.1°F16.7°C 52.9°F11.6°C 72% 2.0 mph SSW3.2 kmh SSW 0.9 mph1.4 kmh 29.82 in1009.8 mb 0.00 in0.0 mm 0.00 in/hr0.0 mm/hr 0.00 in0.0 mm
03:52 AM 61.3°F16.3°C 52.7°F11.5°C 73% 2.0 mph NE3.2 kmh NE 0.9 mph1.4 kmh 29.82 in1009.8 mb 0.00 in0.0 mm 0.00 in/hr0.0 mm/hr 0.00 in0.0 mm
03:47 AM 61.0°F16.1°C 52.7°F11.5°C 74% 2.0 mph SW3.2 kmh SW 4.0 mph6.4 kmh 29.82 in1009.8 mb 0.00 in0.0 mm 0.00 in/hr0.0 mm/hr 0.00 in0.0 mm
03:42 AM 60.6°F15.9°C 52.3°F11.3°C 74% 0.9 mph NW1.4 kmh NW 2.0 mph3.2 kmh 29.82 in1009.8 mb 0.00 in0.0 mm 0.00 in/hr0.0 mm/hr 0.00 in0.0 mm
03:37 AM 60.6°F15.9°C 52.3°F11.3°C 74% 2.0 mph NE3.2 kmh NE 2.0 mph3.2 kmh 29.82 in1009.8 mb 0.00 in0.0 mm 0.00 in/hr0.0 mm/hr 0.00 in0.0 mm
03:32 AM 60.8°F16.0°C 52.5°F11.4°C 74% 2.0 mph 3.2 kmh 0.9 mph1.4 kmh 29.82 in1009.8 mb 0.00 in0.0 mm 0.00 in/hr0.0 mm/hr 0.00 in0.0 mm
03:27 AM 60.8°F16.0°C 52.5°F11.4°C 74% 0.9 mph N1.4 kmh N 2.9 mph4.7 kmh 29.82 in1009.8 mb 0.00 in0.0 mm 0.00 in/hr0.0 mm/hr 0.00 in0.0 mm
03:22 AM 61.0°F16.1°C 52.3°F11.3°C 73% 0.9 mph NE1.4 kmh NE 4.9 mph7.9 kmh 29.82 in1009.8 mb 0.00 in0.0 mm 0.00 in/hr0.0 mm/hr 0.00 in0.0 mm
03:17 AM 61.2°F16.2°C 52.5°F11.4°C 73% 0.9 mph N1.4 kmh N 4.0 mph6.4 kmh 29.82 in1009.8 mb 0.00 in0.0 mm 0.00 in/hr0.0 mm/hr 0.00 in0.0 mm
03:12 AM 61.2°F16.2°C 52.5°F11.4°C 73% 0.9 mph NE1.4 kmh NE -- 29.82 in1009.8 mb 0.00 in0.0 mm 0.00 in/hr0.0 mm/hr 0.00 in0.0 mm
03:07 AM 61.5°F16.4°C 52.3°F11.3°C 72% 2.0 mph NE3.2 kmh NE 2.0 mph3.2 kmh 29.82 in1009.8 mb 0.00 in0.0 mm 0.00 in/hr0.0 mm/hr 0.00 in0.0 mm
03:02 AM 62.2°F16.8°C 52.3°F11.3°C 70% 2.0 mph NE3.2 kmh NE 2.0 mph3.2 kmh 29.82 in1009.8 mb 0.00 in0.0 mm 0.00 in/hr0.0 mm/hr 0.00 in0.0 mm
02:57 AM 63.3°F17.4°C 52.5°F11.4°C 68% 2.9 mph E4.7 kmh E 2.9 mph4.7 kmh 29.82 in1009.8 mb 0.00 in0.0 mm 0.00 in/hr0.0 mm/hr 0.00 in0.0 mm
02:52 AM 63.7°F17.6°C 52.5°F11.4°C 67% 4.0 mph S6.4 kmh S 4.0 mph6.4 kmh 29.83 in1010.2 mb 0.00 in0.0 mm 0.00 in/hr0.0 mm/hr 0.00 in0.0 mm
02:42 AM 63.7°F17.6°C 52.5°F11.4°C 67% 4.0 mph E6.4 kmh E 2.9 mph4.7 kmh 29.82 in1009.8 mb 0.00 in0.0 mm 0.00 in/hr0.0 mm/hr 0.00 in0.0 mm
02:37 AM 63.3°F17.4°C 52.5°F11.4°C 68% 4.0 mph WSW6.4 kmh WSW 8.1 mph13.0 kmh 29.82 in1009.8 mb 0.00 in0.0 mm 0.00 in/hr0.0 mm/hr 0.00 in0.0 mm
02:32 AM 63.1°F17.3°C 52.3°F11.3°C 68% 4.0 mph E6.4 kmh E -- 29.83 in1010.2 mb 0.00 in0.0 mm 0.00 in/hr0.0 mm/hr 0.00 in0.0 mm
02:27 AM 62.8°F17.1°C 52.5°F11.4°C 69% 2.0 mph S3.2 kmh S 2.9 mph4.7 kmh 29.83 in1010.2 mb 0.00 in0.0 mm 0.00 in/hr0.0 mm/hr 0.00 in0.0 mm
02:22 AM 62.4°F16.9°C 52.5°F11.4°C 70% 2.0 mph S3.2 kmh S 4.0 mph6.4 kmh 29.83 in1010.2 mb 0.00 in0.0 mm 0.00 in/hr0.0 mm/hr 0.00 in0.0 mm
02:17 AM 62.2°F16.8°C 52.3°F11.3°C 70% 0.9 mph SE1.4 kmh SE 2.9 mph4.7 kmh 29.83 in1010.2 mb 0.00 in0.0 mm 0.00 in/hr0.0 mm/hr 0.00 in0.0 mm
02:12 AM 62.2°F16.8°C 52.3°F11.3°C 70% 2.0 mph N3.2 kmh N 2.0 mph3.2 kmh 29.83 in1010.2 mb 0.00 in0.0 mm 0.00 in/hr0.0 mm/hr 0.00 in0.0 mm
02:02 AM 61.9°F16.6°C 52.7°F11.5°C 72% 2.0 mph ENE3.2 kmh ENE 0.9 mph1.4 kmh 29.83 in1010.2 mb 0.00 in0.0 mm 0.00 in/hr0.0 mm/hr 0.00 in0.0 mm
01:57 AM 62.4°F16.9°C 52.5°F11.4°C 70% 2.0 mph NE3.2 kmh NE -- 29.84 in1010.5 mb 0.00 in0.0 mm 0.00 in/hr0.0 mm/hr 0.00 in0.0 mm
01:52 AM 62.1°F16.7°C 52.5°F11.4°C 71% 2.0 mph S3.2 kmh S 2.0 mph3.2 kmh 29.84 in1010.5 mb 0.00 in0.0 mm 0.00 in/hr0.0 mm/hr 0.00 in0.0 mm
01:47 AM 61.5°F16.4°C 52.7°F11.5°C 73% 0.9 mph NE1.4 kmh NE 2.0 mph3.2 kmh 29.84 in1010.5 mb 0.00 in0.0 mm 0.00 in/hr0.0 mm/hr 0.00 in0.0 mm
01:42 AM 61.2°F16.2°C 52.9°F11.6°C 74% 2.0 mph WSW3.2 kmh WSW 2.9 mph4.7 kmh 29.84 in1010.5 mb 0.00 in0.0 mm 0.00 in/hr0.0 mm/hr 0.00 in0.0 mm
01:37 AM 61.3°F16.3°C 53.1°F11.7°C 74% 2.0 mph NE3.2 kmh NE 2.0 mph3.2 kmh 29.84 in1010.5 mb 0.00 in0.0 mm 0.00 in/hr0.0 mm/hr 0.00 in0.0 mm
01:32 AM 61.3°F16.3°C 52.7°F11.5°C 73% 2.0 mph NE3.2 kmh NE 2.0 mph3.2 kmh 29.85 in1010.8 mb 0.00 in0.0 mm 0.00 in/hr0.0 mm/hr 0.00 in0.0 mm
01:27 AM 61.5°F16.4°C 53.2°F11.8°C 74% 0.9 mph N1.4 kmh N 2.0 mph3.2 kmh 29.85 in1010.8 mb 0.00 in0.0 mm 0.00 in/hr0.0 mm/hr 0.00 in0.0 mm
01:22 AM 61.7°F16.5°C 52.9°F11.6°C 73% 0.9 mph NNE1.4 kmh NNE 2.9 mph4.7 kmh 29.85 in1010.8 mb 0.00 in0.0 mm 0.00 in/hr0.0 mm/hr 0.00 in0.0 mm
01:17 AM 61.9°F16.6°C 53.4°F11.9°C 74% 2.0 mph ENE3.2 kmh ENE -- 29.85 in1010.8 mb 0.00 in0.0 mm 0.00 in/hr0.0 mm/hr 0.00 in0.0 mm
01:12 AM 61.9°F16.6°C 53.4°F11.9°C 74% 2.0 mph ENE3.2 kmh ENE -- 29.85 in1010.8 mb 0.00 in0.0 mm 0.00 in/hr0.0 mm/hr 0.00 in0.0 mm
01:07 AM 61.9°F16.6°C 53.4°F11.9°C 74% 0.9 mph ENE1.4 kmh ENE 2.9 mph4.7 kmh 29.86 in1011.2 mb 0.00 in0.0 mm 0.00 in/hr0.0 mm/hr 0.00 in0.0 mm
01:02 AM 62.1°F16.7°C 53.6°F12.0°C 74% 0.9 mph N1.4 kmh N 0.9 mph1.4 kmh 29.85 in1010.8 mb 0.00 in0.0 mm 0.00 in/hr0.0 mm/hr 0.00 in0.0 mm
12:57 AM 62.2°F16.8°C 53.4°F11.9°C 73% 2.0 mph N3.2 kmh N 0.9 mph1.4 kmh 29.85 in1010.8 mb 0.00 in0.0 mm 0.00 in/hr0.0 mm/hr 0.00 in0.0 mm
12:52 AM 61.9°F16.6°C 53.4°F11.9°C 74% 2.0 mph N3.2 kmh N 2.0 mph3.2 kmh 29.85 in1010.8 mb 0.00 in0.0 mm 0.00 in/hr0.0 mm/hr 0.00 in0.0 mm
12:47 AM 61.9°F16.6°C 53.4°F11.9°C 74% 2.0 mph NNW3.2 kmh NNW 2.0 mph3.2 kmh 29.86 in1011.2 mb 0.00 in0.0 mm 0.00 in/hr0.0 mm/hr 0.00 in0.0 mm
12:42 AM 62.1°F16.7°C 53.6°F12.0°C 74% 2.0 mph NE3.2 kmh NE 0.9 mph1.4 kmh 29.86 in1011.2 mb 0.00 in0.0 mm 0.00 in/hr0.0 mm/hr 0.00 in0.0 mm
12:37 AM 62.2°F16.8°C 53.8°F12.1°C 74% 2.9 mph ENE4.7 kmh ENE 2.9 mph4.7 kmh 29.86 in1011.2 mb 0.00 in0.0 mm 0.00 in/hr0.0 mm/hr 0.00 in0.0 mm
12:32 AM 62.2°F16.8°C 53.8°F12.1°C 74% 2.9 mph NW4.7 kmh NW 2.9 mph4.7 kmh 29.86 in1011.2 mb 0.00 in0.0 mm 0.00 in/hr0.0 mm/hr 0.00 in0.0 mm
12:27 AM 61.9°F16.6°C 53.8°F12.1°C 75% 2.0 mph NW3.2 kmh NW 2.9 mph4.7 kmh 29.86 in1011.2 mb 0.00 in0.0 mm 0.00 in/hr0.0 mm/hr 0.00 in0.0 mm
12:22 AM 61.9°F16.6°C 53.8°F12.1°C 75% 0.9 mph NNE1.4 kmh NNE 0.9 mph1.4 kmh 29.86 in1011.2 mb 0.00 in0.0 mm 0.00 in/hr0.0 mm/hr 0.00 in0.0 mm
12:17 AM 61.9°F16.6°C 53.8°F12.1°C 75% 0.9 mph SE1.4 kmh SE -- 29.86 in1011.2 mb 0.00 in0.0 mm 0.00 in/hr0.0 mm/hr 0.00 in0.0 mm
12:12 AM 61.9°F16.6°C 53.8°F12.1°C 75% 0.9 mph N1.4 kmh N 0.9 mph1.4 kmh 29.86 in1011.2 mb 0.00 in0.0 mm 0.00 in/hr0.0 mm/hr 0.00 in0.0 mm
12:07 AM 62.1°F16.7°C 53.6°F12.0°C 74% 2.0 mph ENE3.2 kmh ENE 0.9 mph1.4 kmh 29.86 in1011.2 mb 0.00 in0.0 mm 0.00 in/hr0.0 mm/hr 0.00 in0.0 mm
12:02 AM 62.1°F16.7°C 53.6°F12.0°C 74% 2.0 mph NW3.2 kmh NW -- 29.86 in1011.2 mb 0.00 in0.0 mm 0.00 in/hr0.0 mm/hr 0.00 in0.0 mm